Saltar para o conteúdo principal

Alvega

ID 1210812 · 39.4667, -8.0500 mapa

Última leitura · 2026-05-09 19:00 (Europe/Lisbon)

Temperatura
13.9 °C
Humidade
94 %
Pressão
Precipitação
2.4 mm
Radiação
Velocidade do vento
3.6 km/h
Direcção do vento
E · Este

Histórico de 24 horas

Hora (Europe/Lisbon) Temperatura Humidade Pressão Chuva Vento Direcção
2026-05-09 19:00 13.9 °C 94 % 2.4 mm 3.6 km/h E
2026-05-09 18:00 17.9 °C 63 % 0.3 mm 6.8 km/h W
2026-05-09 17:00 20.2 °C 53 % 0.0 mm 19.1 km/h SW
2026-05-09 16:00 21.7 °C 49 % 0.0 mm 19.8 km/h SW
2026-05-09 15:00 21.0 °C 53 % 0.0 mm 12.2 km/h SW
2026-05-09 14:00 17.9 °C 77 % 1.1 mm 17.3 km/h SW
2026-05-09 13:00 18.9 °C 71 % 0.0 mm 11.5 km/h SW
2026-05-09 12:00 17.4 °C 81 % 0.0 mm 8.6 km/h S
2026-05-09 11:00 16.5 °C 86 % 0.0 mm 10.8 km/h SE
2026-05-09 10:00 14.5 °C 95 % 0.0 mm 9.7 km/h SE
2026-05-09 09:00 13.0 °C 98 % 5.3 mm 9.0 km/h SE
2026-05-09 08:00 13.5 °C 92 % 1.2 mm 5.4 km/h SE
2026-05-09 07:00 13.1 °C 94 % 0.0 mm 8.6 km/h E
2026-05-09 06:00 13.1 °C 96 % 0.0 mm 5.4 km/h E
2026-05-09 05:00 12.9 °C 96 % 1.4 mm 6.5 km/h E
2026-05-09 04:00 12.9 °C 90 % 0.0 mm 3.6 km/h E
2026-05-09 03:00 13.2 °C 90 % 0.0 mm 5.4 km/h SE
2026-05-09 02:00 14.0 °C 88 % 0.1 mm 7.9 km/h SE
2026-05-09 01:00 14.3 °C 88 % 0.5 mm 11.5 km/h SE
2026-05-09 00:00 14.7 °C 88 % 0.1 mm 11.2 km/h S
2026-05-08 23:00 14.8 °C 92 % 0.0 mm 4.0 km/h NE
2026-05-08 22:00 15.0 °C 89 % 0.0 mm 2.2 km/h SW
2026-05-08 21:00 15.9 °C 79 % 0.4 mm 7.6 km/h S
2026-05-08 20:00 19.2 °C 50 % 0.0 mm 2.9 km/h S